Gilman, Iowa
Current Conditions -  °F | °C
As of 11:55 PM on Saturday 20 Dec 2014 (Local Time) from KGGI Reporting Station
Haze Haze  
Wind Chill: 27°   Ceiling: 200
Heat Index: 34°   Visibility: 0.75mi
Dew Point: 34°   Wind: 9mph
Humidity: 99%   Direction: 140°SE
Pressure: 30.1"   Gusts: NA
Location:  41.88°N, 92.79°W
Report Text: KGGI 210555Z AUTO 14008KT 3/4SM BR OVC002 01/01 A3010 RMK AO2 T00110010 10011 20002 400111016
Loading
Personal Weather Stations






























Interactive Weather Map New forecast layout! Learn more

10-Day Weather Forecast

Advertisements
Track Severe Weather on mobile